Time;durP1;ratioP1;P1;durP2;ratioP2;P2;SDS_P1;SDS_P2;PMS_P1;PMS_P2;Temp;Humidity;BMP_temperature;BMP_pressure;BME280_temperature;BME280_humidity;BME280_pressure;Samples;Min_cycle;Max_cycle;Signal;HPM_P1;HPM_P2
2021/12/24 00:01:11;;;;;;;5.40;3.57;;;13.40;54.40;;;;;;5093122;28;20433;-55
2021/12/24 00:03:36;;;;;;;3.90;3.50;;;13.50;54.30;;;;;;5092371;28;20422;-56
2021/12/24 00:06:04;;;;;;;4.70;3.67;;;13.60;54.10;;;;;;5093287;28;20508;-55
2021/12/24 00:08:29;;;;;;;5.00;3.33;;;13.50;54.10;;;;;;5093740;28;20549;-56
2021/12/24 00:11:00;;;;;;;3.87;3.50;;;13.60;54.10;;;;;;5091405;28;20434;-55
2021/12/24 00:13:29;;;;;;;3.43;3.00;;;13.60;53.90;;;;;;5093745;28;20199;-56
2021/12/24 00:18:46;;;;;;;5.20;2.90;;;13.60;54.10;;;;;;5093655;28;20479;-55
2021/12/24 00:37:10;;;;;;;3.77;3.20;;;13.80;53.70;;;;;;5093308;28;20852;-54
2021/12/24 00:39:43;;;;;;;3.40;3.07;;;13.90;53.70;;;;;;5092714;28;20429;-53
2021/12/24 00:42:09;;;;;;;5.43;4.10;;;13.80;53.60;;;;;;5090485;28;20432;-56
2021/12/24 00:44:34;;;;;;;3.73;3.30;;;13.80;53.50;;;;;;5091242;28;20529;-57
2021/12/24 00:47:01;;;;;;;4.37;3.20;;;13.80;53.50;;;;;;5092608;28;20520;-56
2021/12/24 00:49:27;;;;;;;3.67;3.00;;;13.80;53.60;;;;;;5092855;28;20208;-55
2021/12/24 00:52:07;;;;;;;5.40;3.40;;;13.90;53.70;;;;;;5092195;28;20902;-54
2021/12/24 00:57:21;;;;;;;4.80;2.97;;;13.80;53.70;;;;;;5091461;28;20483;-56
2021/12/24 00:59:46;;;;;;;3.70;3.40;;;13.80;54.00;;;;;;5092225;28;20436;-55
2021/12/24 01:02:12;;;;;;;5.10;3.60;;;13.70;54.10;;;;;;5092405;28;20418;-55
2021/12/24 01:04:38;;;;;;;3.53;3.20;;;13.60;54.30;;;;;;5093108;28;20559;-55
2021/12/24 01:07:04;;;;;;;4.37;3.20;;;13.70;54.20;;;;;;5092245;28;20250;-55
2021/12/24 01:09:29;;;;;;;3.27;2.97;;;13.80;54.30;;;;;;5092056;28;20222;-56
2021/12/24 01:11:55;;;;;;;4.33;3.40;;;13.80;54.10;;;;;;5092153;28;20631;-56
2021/12/24 01:14:22;;;;;;;4.43;3.30;;;13.80;54.00;;;;;;5092639;28;20657;-56
2021/12/24 01:17:03;;;;;;;3.50;2.80;;;13.90;53.90;;;;;;5091875;28;20199;-54
2021/12/24 01:19:29;;;;;;;4.40;2.80;;;14.00;53.70;;;;;;5091604;28;20650;-55
2021/12/24 01:24:57;;;;;;;4.13;3.10;;;13.90;53.90;;;;;;5092669;28;20467;-55
2021/12/24 01:37:54;;;;;;;3.10;2.80;;;14.20;53.20;;;;;;5088008;28;21017;-55
2021/12/24 01:40:29;;;;;;;3.40;2.90;;;14.20;53.20;;;;;;5091030;28;20433;-56
2021/12/24 01:42:55;;;;;;;3.40;2.43;;;14.20;53.10;;;;;;5087876;28;20420;-55
2021/12/24 01:45:33;;;;;;;5.37;3.53;;;14.20;53.20;;;;;;5091316;28;20418;-55
2021/12/24 01:48:08;;;;;;;4.60;3.20;;;14.20;53.20;;;;;;5091558;28;20445;-55
2021/12/24 01:50:36;;;;;;;6.10;2.97;;;14.10;53.30;;;;;;5089341;28;20461;-55
2021/12/24 01:53:05;;;;;;;4.10;2.97;;;14.20;53.30;;;;;;5091834;28;20436;-54
2021/12/24 01:55:31;;;;;;;5.53;3.90;;;14.20;53.20;;;;;;5090930;28;20520;-56
2021/12/24 01:57:57;;;;;;;4.60;3.10;;;14.30;53.00;;;;;;5091762;28;20455;-56
2021/12/24 02:00:27;;;;;;;3.33;3.03;;;14.40;52.90;;;;;;5090802;28;20917;-56
2021/12/24 02:02:52;;;;;;;3.03;2.63;;;14.40;52.70;;;;;;5091856;28;20701;-55
2021/12/24 02:05:19;;;;;;;3.10;2.83;;;14.40;52.80;;;;;;5091065;28;20501;-57
2021/12/24 02:07:45;;;;;;;2.67;2.47;;;14.50;52.70;;;;;;5091419;28;20233;-55
2021/12/24 02:10:13;;;;;;;3.20;2.80;;;14.40;52.60;;;;;;5090588;28;20425;-52
2021/12/24 02:12:40;;;;;;;4.37;3.07;;;14.30;52.90;;;;;;5092074;28;20787;-53
2021/12/24 02:15:13;;;;;;;2.90;2.60;;;14.30;53.10;;;;;;5090788;28;20433;-54
2021/12/24 02:28:36;;;;;;;3.27;2.27;;;14.30;53.10;;;;;;5091445;28;20496;-54
2021/12/24 02:31:06;;;;;;;4.93;2.53;;;14.30;53.10;;;;;;5090409;28;20464;-56
2021/12/24 02:33:33;;;;;;;2.60;2.40;;;14.30;53.10;;;;;;5091205;28;20432;-53
2021/12/24 02:35:58;;;;;;;2.77;2.43;;;14.30;53.20;;;;;;5090508;28;20422;-55
2021/12/24 02:38:24;;;;;;;3.17;2.80;;;14.30;53.10;;;;;;5091348;28;20563;-54
2021/12/24 02:40:50;;;;;;;4.30;2.87;;;14.30;53.20;;;;;;5090315;28;20274;-56
2021/12/24 02:43:19;;;;;;;2.50;2.10;;;14.20;53.20;;;;;;5085845;28;20198;-52
2021/12/24 02:45:47;;;;;;;4.30;2.57;;;14.10;53.40;;;;;;5090462;28;20655;-55
2021/12/24 02:48:46;;;;;;;3.23;2.37;;;14.20;53.40;;;;;;5091254;28;20809;-55
2021/12/24 02:56:24;;;;;;;3.23;2.47;;;14.20;53.40;;;;;;5092914;28;20424;-55
2021/12/24 02:58:50;;;;;;;2.63;2.43;;;14.30;53.20;;;;;;5094864;28;20436;-53
2021/12/24 03:01:19;;;;;;;2.90;2.50;;;14.30;53.10;;;;;;5094228;28;20452;-53
2021/12/24 03:03:48;;;;;;;4.60;2.77;;;14.30;53.10;;;;;;5095169;28;21329;-56
2021/12/24 03:06:18;;;;;;;3.10;2.80;;;14.30;53.00;;;;;;5094490;28;20487;-55
2021/12/24 03:08:44;;;;;;;3.10;2.53;;;14.30;53.00;;;;;;5093408;28;20417;-56
2021/12/24 03:11:10;;;;;;;2.40;2.20;;;14.40;52.90;;;;;;5093950;28;20502;-56
2021/12/24 03:13:37;;;;;;;2.80;2.50;;;14.40;52.80;;;;;;5094964;28;20191;-56
2021/12/24 03:16:03;;;;;;;3.50;2.50;;;14.40;52.80;;;;;;5094305;28;20472;-55
2021/12/24 03:18:32;;;;;;;3.80;2.47;;;14.30;52.70;;;;;;5094271;28;20940;-56
2021/12/24 03:24:33;;;;;;;2.90;2.60;;;14.30;53.00;;;;;;5094737;28;20948;-56
2021/12/24 03:26:40;;;;;;;3.07;2.77;;;14.40;52.70;;;;;;5093759;28;20927;-53
2021/12/24 03:29:09;;;;;;;2.87;2.23;;;14.30;52.70;;;;;;5094403;28;20924;-55
2021/12/24 03:31:37;;;;;;;2.90;2.70;;;14.20;52.90;;;;;;5093490;28;20429;-56
2021/12/24 03:34:04;;;;;;;3.33;2.57;;;14.10;53.20;;;;;;5094526;28;20465;-56
2021/12/24 03:36:30;;;;;;;4.77;2.60;;;14.20;53.20;;;;;;5092461;28;20983;-55
2021/12/24 03:38:56;;;;;;;2.20;2.00;;;14.20;53.20;;;;;;5094231;28;20877;-54
2021/12/24 03:41:22;;;;;;;2.70;2.50;;;14.10;53.30;;;;;;5093409;28;20184;-56
2021/12/24 03:43:49;;;;;;;3.80;2.80;;;14.00;53.60;;;;;;5090287;28;20417;-55
2021/12/24 03:46:18;;;;;;;4.57;2.50;;;13.90;53.80;;;;;;5093499;28;20484;-55
2021/12/24 03:51:37;;;;;;;2.93;2.63;;;13.80;54.10;;;;;;5093511;28;20457;-55
2021/12/24 03:56:47;;;;;;;2.20;2.00;;;14.00;53.60;;;;;;5093794;28;20440;-56
2021/12/24 03:59:13;;;;;;;4.10;2.50;;;14.10;53.40;;;;;;5093811;28;20433;-56
2021/12/24 04:01:39;;;;;;;3.23;2.13;;;14.20;53.20;;;;;;5093580;28;20547;-56
2021/12/24 04:04:05;;;;;;;3.90;2.33;;;14.20;53.20;;;;;;5092235;28;20248;-56
2021/12/24 04:06:32;;;;;;;5.80;2.67;;;14.20;53.30;;;;;;5092861;28;20843;-56
2021/12/24 04:08:58;;;;;;;5.03;2.73;;;14.20;53.20;;;;;;5093023;28;20936;-56
2021/12/24 04:11:24;;;;;;;4.43;2.70;;;14.30;53.20;;;;;;5092921;28;20413;-54
2021/12/24 04:13:50;;;;;;;3.40;2.20;;;14.30;53.10;;;;;;5093685;28;20726;-55
2021/12/24 04:16:16;;;;;;;2.13;1.93;;;14.40;53.00;;;;;;5093488;28;20501;-55
2021/12/24 04:18:51;;;;;;;2.23;2.00;;;14.30;53.20;;;;;;5093594;28;20227;-55
2021/12/24 04:26:45;;;;;;;3.83;2.67;;;14.30;53.20;;;;;;5092652;28;20537;-56
2021/12/24 04:29:12;;;;;;;2.33;2.13;;;14.30;53.10;;;;;;5091596;28;20904;-55
2021/12/24 04:31:45;;;;;;;2.70;2.40;;;14.30;53.00;;;;;;5093189;28;20194;-55
2021/12/24 04:34:13;;;;;;;2.93;2.17;;;14.30;53.00;;;;;;5093938;28;20425;-55
2021/12/24 04:39:41;;;;;;;2.40;2.20;;;14.40;52.90;;;;;;5092893;28;20441;-52
2021/12/24 05:03:44;;;;;;;2.97;2.67;;;14.20;53.00;;;;;;5093298;28;20473;-56
2021/12/24 05:08:54;;;;;;;2.63;2.30;;;14.20;53.10;;;;;;5092643;28;20429;-55
2021/12/24 05:11:21;;;;;;;5.27;3.00;;;14.20;53.20;;;;;;5091848;28;20430;-56
2021/12/24 05:13:48;;;;;;;3.00;2.43;;;14.20;53.40;;;;;;5092580;28;20425;-56
2021/12/24 05:21:33;;;;;;;2.93;2.60;;;14.20;53.20;;;;;;5091678;28;20482;-52
2021/12/24 05:24:03;;;;;;;2.30;2.17;;;14.20;53.40;;;;;;5091576;28;20504;-55
2021/12/24 05:26:29;;;;;;;2.83;2.27;;;14.20;53.30;;;;;;5091331;28;20503;-56
2021/12/24 05:28:56;;;;;;;2.90;2.70;;;14.30;53.40;;;;;;5092380;28;20425;-55
2021/12/24 05:31:22;;;;;;;5.27;2.30;;;14.30;53.40;;;;;;5091250;28;20916;-54
2021/12/24 05:33:48;;;;;;;3.10;2.37;;;14.30;53.40;;;;;;5092110;28;20420;-54
2021/12/24 05:36:14;;;;;;;4.10;2.60;;;14.30;53.30;;;;;;5091725;28;20437;-54
2021/12/24 05:38:39;;;;;;;3.63;2.90;;;14.20;53.40;;;;;;5092325;28;20697;-54
2021/12/24 05:41:05;;;;;;;2.53;2.27;;;14.20;53.40;;;;;;5091368;28;20187;-56
2021/12/24 05:43:31;;;;;;;4.00;2.50;;;14.10;53.60;;;;;;5087790;28;20893;-55
2021/12/24 05:45:57;;;;;;;2.30;2.10;;;14.00;53.80;;;;;;5091421;28;20268;-55
2021/12/24 05:48:23;;;;;;;3.40;2.57;;;14.00;53.90;;;;;;5090425;28;20983;-55
2021/12/24 05:50:49;;;;;;;2.67;2.30;;;13.90;54.00;;;;;;5091265;28;20191;-56
2021/12/24 05:53:14;;;;;;;3.00;2.03;;;13.90;54.10;;;;;;5091790;28;20202;-56
2021/12/24 05:55:40;;;;;;;3.10;2.60;;;13.90;54.20;;;;;;5090342;28;20202;-54
2021/12/24 05:58:08;;;;;;;4.00;2.37;;;13.80;54.10;;;;;;5091897;28;20202;-54
2021/12/24 06:00:38;;;;;;;2.50;2.13;;;13.80;54.40;;;;;;5090917;28;20425;-56
2021/12/24 06:03:06;;;;;;;2.77;2.53;;;13.50;54.90;;;;;;5091764;28;20429;-56
2021/12/24 06:05:35;;;;;;;2.93;2.50;;;13.60;55.20;;;;;;5090802;28;20425;-55
2021/12/24 06:08:02;;;;;;;2.70;2.50;;;13.50;55.20;;;;;;5091798;28;20507;-53
2021/12/24 06:10:28;;;;;;;5.10;2.70;;;13.50;55.60;;;;;;5090573;28;20453;-55
2021/12/24 06:12:53;;;;;;;3.03;2.70;;;13.50;55.60;;;;;;5091459;28;20514;-56
2021/12/24 06:15:23;;;;;;;3.80;3.33;;;13.50;55.70;;;;;;5089182;28;20191;-56
2021/12/24 06:17:52;;;;;;;3.33;3.03;;;13.50;56.20;;;;;;5091927;28;20210;-53
2021/12/24 06:20:19;;;;;;;3.07;2.77;;;13.50;56.20;;;;;;5090823;28;20469;-53
2021/12/24 06:22:44;;;;;;;2.77;2.57;;;13.20;57.20;;;;;;5091445;28;20464;-56
2021/12/24 06:25:10;;;;;;;2.20;2.00;;;13.20;57.70;;;;;;5090956;28;20449;-56
2021/12/24 06:27:37;;;;;;;2.50;2.30;;;13.20;57.70;;;;;;5091419;28;20246;-53
2021/12/24 06:30:06;;;;;;;3.70;2.37;;;13.40;57.50;;;;;;5089811;28;20262;-56
2021/12/24 06:32:31;;;;;;;4.40;2.60;;;13.50;57.20;;;;;;5091190;28;20421;-55
2021/12/24 06:34:57;;;;;;;2.57;2.37;;;13.40;57.30;;;;;;5090571;28;20973;-53
2021/12/24 06:37:23;;;;;;;3.30;2.23;;;13.30;57.50;;;;;;5089984;28;20198;-54
2021/12/24 06:39:49;;;;;;;4.90;2.90;;;13.40;57.40;;;;;;5090098;28;20558;-56
2021/12/24 06:42:15;;;;;;;3.00;2.73;;;13.60;57.10;;;;;;5086373;28;20422;-56
2021/12/24 06:44:41;;;;;;;4.60;3.30;;;13.70;56.80;;;;;;5090496;28;20206;-55
2021/12/24 06:47:06;;;;;;;3.00;2.30;;;13.60;56.90;;;;;;5090356;28;21049;-54
2021/12/24 06:49:33;;;;;;;4.30;2.97;;;13.80;56.60;;;;;;5090862;28;20529;-54
2021/12/24 06:51:59;;;;;;;3.53;2.80;;;13.90;56.30;;;;;;5090563;28;20179;-56
2021/12/24 06:54:24;;;;;;;3.13;2.83;;;13.90;56.10;;;;;;5090911;28;20869;-55
2021/12/24 06:56:50;;;;;;;3.53;2.87;;;13.80;56.40;;;;;;5090635;28;20270;-54
2021/12/24 06:59:16;;;;;;;2.97;2.67;;;13.80;56.50;;;;;;5090418;28;20685;-55
2021/12/24 07:01:42;;;;;;;5.33;2.80;;;13.60;56.80;;;;;;5090810;28;20895;-55
2021/12/24 07:04:08;;;;;;;3.60;2.77;;;13.50;56.90;;;;;;5090976;28;20422;-56
2021/12/24 07:06:34;;;;;;;3.67;2.43;;;13.60;57.30;;;;;;5090352;28;20477;-55
2021/12/24 07:09:00;;;;;;;3.60;2.77;;;13.50;57.10;;;;;;5088887;28;20436;-53
2021/12/24 07:11:25;;;;;;;4.70;3.70;;;13.50;57.40;;;;;;5090391;28;20191;-56
2021/12/24 07:13:52;;;;;;;3.13;2.70;;;13.50;57.40;;;;;;5090877;28;20186;-55
2021/12/24 07:16:18;;;;;;;3.90;3.23;;;13.60;57.20;;;;;;5090354;28;20187;-56
2021/12/24 07:18:43;;;;;;;3.80;2.90;;;13.60;57.50;;;;;;5090308;28;20472;-56
2021/12/24 07:21:09;;;;;;;4.40;4.00;;;13.50;57.80;;;;;;5089832;28;20189;-54
2021/12/24 07:23:35;;;;;;;3.50;3.20;;;13.60;58.40;;;;;;5090827;28;20266;-54
2021/12/24 07:26:01;;;;;;;4.33;3.57;;;13.60;58.40;;;;;;5090006;28;20301;-55
2021/12/24 07:28:27;;;;;;;3.73;3.27;;;13.50;58.50;;;;;;5090884;28;20195;-56
2021/12/24 07:30:53;;;;;;;4.50;3.10;;;13.60;58.60;;;;;;5090025;28;20425;-55
2021/12/24 07:33:18;;;;;;;5.17;3.00;;;13.70;58.50;;;;;;5090768;28;20191;-56
2021/12/24 07:35:45;;;;;;;4.23;2.90;;;13.80;58.30;;;;;;5088704;28;20662;-56
2021/12/24 07:38:14;;;;;;;8.37;3.27;;;13.70;58.20;;;;;;5090727;28;20713;-58
2021/12/24 07:40:44;;;;;;;3.40;3.10;;;13.70;58.20;;;;;;5089820;28;20429;-56
2021/12/24 07:43:10;;;;;;;4.20;3.33;;;13.60;58.40;;;;;;5090320;28;20433;-56
2021/12/24 07:45:38;;;;;;;4.70;3.50;;;13.60;58.70;;;;;;5093417;28;20470;-57
2021/12/24 07:48:28;;;;;;;3.50;3.20;;;13.50;58.70;;;;;;5094209;28;20459;-56
2021/12/24 07:53:18;;;;;;;3.93;3.20;;;13.50;59.10;;;;;;5094462;28;20511;-55
2021/12/24 07:55:45;;;;;;;4.97;4.57;;;13.60;58.80;;;;;;5093654;28;20194;-56
2021/12/24 07:58:14;;;;;;;4.63;3.47;;;13.90;58.40;;;;;;5093969;28;20518;-56
2021/12/24 08:00:41;;;;;;;4.27;3.73;;;14.20;57.50;;;;;;5093235;28;20425;-56
2021/12/24 08:03:07;;;;;;;5.90;3.83;;;14.30;57.10;;;;;;5092526;28;20470;-56
2021/12/24 08:05:37;;;;;;;5.60;4.00;;;14.20;56.60;;;;;;5093378;28;20428;-55
2021/12/24 08:08:03;;;;;;;5.40;4.27;;;13.90;57.10;;;;;;5093767;28;20433;-55
2021/12/24 08:10:30;;;;;;;7.40;3.80;;;13.70;57.70;;;;;;5092879;28;20421;-56
2021/12/24 08:12:56;;;;;;;5.13;4.13;;;13.50;58.10;;;;;;5093718;28;20271;-55
2021/12/24 08:15:21;;;;;;;4.60;4.00;;;13.70;58.10;;;;;;5093043;28;21212;-56
2021/12/24 08:17:47;;;;;;;3.87;2.63;;;13.50;58.10;;;;;;5093816;28;20199;-55
2021/12/24 08:20:15;;;;;;;3.47;3.03;;;13.60;58.30;;;;;;5092070;28;20601;-55
2021/12/24 08:22:40;;;;;;;4.57;3.63;;;13.90;57.80;;;;;;5093086;28;20429;-56
2021/12/24 08:25:08;;;;;;;3.47;3.13;;;14.20;57.00;;;;;;5092553;28;20418;-56
2021/12/24 08:27:38;;;;;;;3.57;3.03;;;14.10;56.80;;;;;;5093485;28;20246;-55
2021/12/24 08:30:06;;;;;;;6.90;3.33;;;14.00;57.20;;;;;;5090869;28;20429;-55
2021/12/24 08:32:37;;;;;;;3.97;3.20;;;14.00;56.90;;;;;;5093590;28;20429;-56
2021/12/24 08:35:03;;;;;;;3.37;2.53;;;14.10;57.00;;;;;;5092528;28;20552;-55
2021/12/24 08:37:30;;;;;;;3.03;2.73;;;14.00;57.00;;;;;;5093283;28;20429;-54
2021/12/24 08:39:56;;;;;;;6.10;3.40;;;13.80;57.30;;;;;;5092349;28;20437;-56
2021/12/24 08:42:21;;;;;;;3.10;2.80;;;14.00;57.20;;;;;;5089116;28;20437;-56
2021/12/24 08:44:47;;;;;;;5.40;2.90;;;14.10;57.10;;;;;;5092351;28;20195;-56
2021/12/24 08:47:12;;;;;;;3.40;2.60;;;14.20;56.80;;;;;;5092982;28;20227;-56
2021/12/24 08:49:38;;;;;;;3.13;2.50;;;14.20;56.80;;;;;;5092904;28;20191;-56
2021/12/24 08:52:04;;;;;;;3.13;2.83;;;14.00;56.90;;;;;;5092630;28;20195;-55
2021/12/24 08:54:30;;;;;;;3.93;3.17;;;13.90;57.20;;;;;;5091982;28;20195;-55
2021/12/24 08:56:57;;;;;;;4.30;2.53;;;13.90;57.30;;;;;;5090817;28;20455;-56
2021/12/24 08:59:23;;;;;;;3.83;2.50;;;13.90;57.40;;;;;;5092522;28;20195;-56
2021/12/24 09:01:50;;;;;;;2.97;2.67;;;13.80;57.60;;;;;;5092469;28;20413;-56
2021/12/24 09:04:16;;;;;;;2.97;2.70;;;13.70;57.90;;;;;;5092582;28;20471;-54
2021/12/24 09:06:42;;;;;;;4.80;3.70;;;13.90;57.50;;;;;;5092413;28;20902;-55
2021/12/24 09:09:10;;;;;;;5.47;3.10;;;14.00;57.30;;;;;;5092155;28;20429;-53
2021/12/24 09:11:37;;;;;;;3.57;2.63;;;13.90;57.60;;;;;;5092207;28;20199;-56
2021/12/24 09:14:03;;;;;;;5.80;4.30;;;13.50;58.10;;;;;;5092516;28;20441;-56
2021/12/24 09:16:29;;;;;;;3.90;3.40;;;13.30;58.80;;;;;;5092302;28;20496;-56
2021/12/24 09:19:01;;;;;;;4.33;2.67;;;13.50;58.70;;;;;;5092167;28;20255;-56
2021/12/24 09:21:28;;;;;;;4.97;2.40;;;13.70;58.50;;;;;;5091834;28;20862;-56
2021/12/24 09:23:55;;;;;;;3.37;2.67;;;13.70;58.60;;;;;;5090917;28;20429;-56
2021/12/24 09:26:27;;;;;;;3.50;2.73;;;13.70;58.70;;;;;;5091378;28;20488;-55
2021/12/24 09:28:57;;;;;;;6.20;2.63;;;13.60;59.20;;;;;;5091996;28;20428;-55
2021/12/24 09:31:24;;;;;;;3.83;2.90;;;13.70;59.20;;;;;;5091907;28;20431;-56
2021/12/24 09:33:50;;;;;;;4.50;3.63;;;13.80;58.90;;;;;;5092006;28;20917;-54
2021/12/24 09:36:23;;;;;;;7.23;3.40;;;13.70;59.10;;;;;;5091545;28;20516;-58
2021/12/24 09:38:49;;;;;;;7.50;3.30;;;13.60;60.10;;;;;;5091931;28;20429;-56
2021/12/24 09:41:15;;;;;;;3.07;2.70;;;13.60;59.70;;;;;;5091655;28;20839;-56
2021/12/24 09:43:40;;;;;;;3.30;3.00;;;13.60;60.00;;;;;;5088122;28;20685;-57
2021/12/24 09:46:06;;;;;;;4.03;3.07;;;13.50;60.20;;;;;;5091444;28;20219;-56
2021/12/24 09:48:32;;;;;;;3.00;2.80;;;13.40;60.20;;;;;;5090567;28;20194;-56
2021/12/24 09:50:57;;;;;;;3.10;2.80;;;13.50;60.50;;;;;;5090988;28;20199;-57
2021/12/24 09:53:23;;;;;;;3.97;3.57;;;13.30;60.50;;;;;;5092049;28;20202;-56
2021/12/24 09:55:48;;;;;;;3.13;2.83;;;13.30;61.10;;;;;;5091173;28;20218;-56
2021/12/24 09:58:14;;;;;;;3.50;3.20;;;13.30;61.10;;;;;;5092109;28;20219;-53
2021/12/24 10:00:40;;;;;;;3.40;3.10;;;13.30;60.90;;;;;;5090912;28;20200;-57
2021/12/24 10:03:06;;;;;;;5.07;3.30;;;13.30;61.10;;;;;;5091772;28;20601;-56
2021/12/24 10:05:40;;;;;;;3.47;2.90;;;13.30;61.40;;;;;;5090977;28;20524;-56
2021/12/24 10:08:19;;;;;;;3.90;3.50;;;13.30;61.80;;;;;;5091659;28;20447;-54
2021/12/24 10:10:48;;;;;;;4.00;3.43;;;13.10;62.00;;;;;;5090806;28;20507;-57
2021/12/24 10:13:37;;;;;;;4.30;3.20;;;13.10;62.70;;;;;;5091475;28;20440;-57
2021/12/24 10:16:09;;;;;;;4.00;3.20;;;13.10;64.10;;;;;;5089009;28;20442;-57
2021/12/24 10:18:42;;;;;;;3.23;3.03;;;13.10;64.50;;;;;;5091091;28;20995;-57
2021/12/24 10:21:17;;;;;;;3.40;3.07;;;13.30;64.40;;;;;;5090974;28;20430;-57
2021/12/24 10:24:00;;;;;;;3.30;3.00;;;13.30;64.30;;;;;;5091331;28;20899;-57
2021/12/24 10:26:50;;;;;;;3.47;3.17;;;13.30;64.80;;;;;;5090910;28;20488;-56
2021/12/24 10:29:26;;;;;;;4.73;3.50;;;13.50;64.30;;;;;;5090959;28;20438;-55
2021/12/24 10:31:55;;;;;;;4.47;2.67;;;13.60;63.60;;;;;;5090853;28;20447;-56
2021/12/24 10:34:34;;;;;;;3.23;2.93;;;13.50;63.40;;;;;;5091080;28;20421;-57
2021/12/24 10:37:24;;;;;;;3.57;2.80;;;13.30;63.30;;;;;;5090681;28;20433;-57
2021/12/24 10:40:02;;;;;;;2.73;2.33;;;13.10;64.50;;;;;;5086748;28;20441;-56
2021/12/24 10:42:37;;;;;;;4.53;2.73;;;13.00;64.70;;;;;;5084046;28;20438;-56
2021/12/24 10:45:23;;;;;;;3.33;3.03;;;12.90;65.10;;;;;;5090530;28;20424;-55
2021/12/24 10:47:49;;;;;;;4.00;3.07;;;13.20;65.00;;;;;;5090817;28;21051;-56
2021/12/24 10:53:19;;;;;;;4.57;2.57;;;13.30;64.40;;;;;;5090924;28;20650;-56
2021/12/24 10:55:48;;;;;;;4.93;3.57;;;13.20;64.40;;;;;;5089728;28;20813;-56
2021/12/24 10:58:17;;;;;;;2.90;2.60;;;13.20;64.40;;;;;;5091125;28;20781;-58
2021/12/24 11:00:57;;;;;;;3.83;2.77;;;13.20;64.30;;;;;;5090130;28;20456;-56
2021/12/24 11:03:27;;;;;;;5.73;2.90;;;13.10;65.00;;;;;;5091302;28;20457;-56
2021/12/24 11:06:08;;;;;;;3.70;2.87;;;13.10;64.70;;;;;;5090100;28;20804;-57
2021/12/24 11:08:34;;;;;;;3.30;2.97;;;13.10;64.40;;;;;;5089237;28;20429;-57
2021/12/24 11:11:01;;;;;;;5.10;3.53;;;13.20;64.50;;;;;;5090177;28;20436;-56
2021/12/24 11:13:40;;;;;;;2.50;2.30;;;13.50;64.30;;;;;;5090648;28;20437;-56
2021/12/24 11:16:08;;;;;;;3.30;2.50;;;13.70;62.80;;;;;;5090488;28;20440;-56
2021/12/24 11:18:38;;;;;;;3.37;2.50;;;13.80;62.10;;;;;;5094535;28;20472;-57
2021/12/24 11:21:08;;;;;;;2.80;2.57;;;13.80;61.70;;;;;;5093211;28;20436;-56
2021/12/24 11:23:36;;;;;;;3.30;3.00;;;13.80;61.50;;;;;;5094605;28;20448;-56
2021/12/24 11:26:04;;;;;;;3.10;2.80;;;13.90;61.50;;;;;;5094356;28;20461;-56
2021/12/24 11:28:31;;;;;;;4.40;2.70;;;13.80;61.70;;;;;;5094370;28;20421;-57
2021/12/24 11:31:03;;;;;;;2.97;2.67;;;13.70;62.10;;;;;;5093974;28;21209;-56
2021/12/24 11:33:31;;;;;;;3.70;2.70;;;13.80;61.90;;;;;;5094420;28;20420;-57
2021/12/24 11:36:01;;;;;;;3.73;2.80;;;13.70;61.80;;;;;;5092172;28;20425;-57
2021/12/24 11:38:29;;;;;;;4.33;2.60;;;13.80;61.60;;;;;;5094119;28;20448;-56
2021/12/24 11:40:57;;;;;;;2.80;2.20;;;13.60;62.00;;;;;;5093809;28;20445;-57
2021/12/24 11:43:28;;;;;;;2.87;2.43;;;13.70;62.90;;;;;;5090464;28;20456;-56
2021/12/24 11:45:57;;;;;;;3.10;2.57;;;13.60;62.10;;;;;;5093732;28;20421;-56
2021/12/24 11:48:23;;;;;;;3.83;2.47;;;13.60;62.30;;;;;;5094025;28;20437;-56
2021/12/24 11:50:48;;;;;;;3.00;2.33;;;13.80;62.10;;;;;;5093538;28;20425;-56
2021/12/24 11:53:17;;;;;;;2.83;2.53;;;13.70;61.90;;;;;;5092960;28;20199;-57
2021/12/24 11:55:49;;;;;;;2.30;2.10;;;13.80;61.90;;;;;;5093587;28;20195;-56
2021/12/24 11:58:20;;;;;;;3.60;2.50;;;13.80;61.80;;;;;;5094222;28;20418;-56
2021/12/24 12:00:49;;;;;;;3.30;2.57;;;13.70;62.00;;;;;;5093004;28;20456;-56
2021/12/24 12:03:30;;;;;;;2.17;2.00;;;13.70;62.20;;;;;;5092687;28;20429;-56
2021/12/24 12:05:55;;;;;;;3.33;2.53;;;13.60;62.30;;;;;;5093771;28;20810;-55
2021/12/24 12:08:30;;;;;;;2.50;2.30;;;13.80;62.20;;;;;;5093578;28;20425;-56
2021/12/24 12:11:02;;;;;;;2.30;2.00;;;13.70;62.30;;;;;;5093227;28;20619;-56
2021/12/24 12:13:49;;;;;;;2.30;2.10;;;13.50;63.90;;;;;;5093737;28;20421;-57
2021/12/24 12:16:19;;;;;;;1.67;1.57;;;13.40;63.90;;;;;;5093481;28;20425;-55
2021/12/24 12:18:48;;;;;;;2.90;2.70;;;13.60;64.90;;;;;;5093029;28;20465;-55
2021/12/24 12:21:22;;;;;;;2.30;2.10;;;13.70;63.90;;;;;;5093118;28;20430;-56
2021/12/24 12:26:34;;;;;;;3.23;2.17;;;13.90;63.30;;;;;;5092946;28;20496;-56
2021/12/24 12:29:27;;;;;;;2.40;2.20;;;13.80;63.40;;;;;;5090175;28;20962;-56
2021/12/24 12:32:00;;;;;;;3.27;2.33;;;13.80;63.40;;;;;;5092838;28;20936;-56
2021/12/24 12:34:43;;;;;;;3.60;2.53;;;13.70;63.60;;;;;;5093296;28;20576;-58
2021/12/24 12:37:12;;;;;;;2.30;2.03;;;13.70;64.00;;;;;;5093147;28;20433;-57
2021/12/24 12:39:39;;;;;;;1.40;1.30;;;13.90;63.50;;;;;;5092741;28;20873;-56
2021/12/24 12:42:05;;;;;;;3.00;1.73;;;13.70;63.70;;;;;;5090857;28;20889;-56
2021/12/24 12:44:33;;;;;;;2.07;1.43;;;13.90;63.50;;;;;;5091102;28;20493;-57
2021/12/24 12:47:10;;;;;;;1.63;1.50;;;13.70;63.30;;;;;;5092639;28;20476;-56
2021/12/24 12:49:36;;;;;;;2.03;1.80;;;13.60;63.80;;;;;;5092437;28;20913;-56
2021/12/24 12:52:11;;;;;;;2.40;1.93;;;13.50;64.00;;;;;;5092564;28;20429;-57
2021/12/24 12:54:48;;;;;;;1.80;1.70;;;13.40;64.50;;;;;;5092989;28;20218;-56
2021/12/24 12:57:23;;;;;;;2.50;1.47;;;13.50;64.20;;;;;;5091127;28;20442;-58
2021/12/24 13:00:07;;;;;;;2.93;1.93;;;13.40;64.20;;;;;;5091870;28;21054;-57
2021/12/24 13:03:07;;;;;;;2.20;1.67;;;13.20;65.80;;;;;;5092979;28;20486;-56
2021/12/24 13:05:33;;;;;;;2.30;1.60;;;13.10;65.60;;;;;;5092355;28;20555;-56
2021/12/24 13:08:21;;;;;;;1.87;1.70;;;12.90;65.40;;;;;;5092884;28;20476;-56
2021/12/24 13:11:05;;;;;;;1.80;1.70;;;13.10;65.70;;;;;;5092002;28;20433;-55
2021/12/24 13:13:42;;;;;;;3.00;1.83;;;13.00;66.00;;;;;;5092654;28;20826;-55
2021/12/24 13:16:19;;;;;;;1.43;1.30;;;13.00;66.10;;;;;;5092359;28;20425;-57
2021/12/24 13:18:54;;;;;;;1.90;1.67;;;13.20;65.60;;;;;;5092130;28;20900;-56
2021/12/24 13:24:15;;;;;;;1.57;1.47;;;13.40;65.20;;;;;;5098847;28;20459;-56
2021/12/24 13:26:42;;;;;;;1.90;1.80;;;13.40;64.90;;;;;;5091909;28;20479;-56
2021/12/24 13:29:16;;;;;;;1.77;1.67;;;13.30;65.20;;;;;;5092248;28;20523;-56
2021/12/24 13:31:49;;;;;;;1.30;1.20;;;13.40;65.00;;;;;;5091825;28;20963;-56
2021/12/24 13:34:16;;;;;;;1.47;1.30;;;13.60;64.80;;;;;;5092026;28;20789;-56
2021/12/24 13:36:42;;;;;;;2.37;1.27;;;13.60;64.30;;;;;;5091761;28;20441;-57
2021/12/24 13:39:23;;;;;;;2.80;1.60;;;13.60;64.00;;;;;;5091508;28;20464;-56
2021/12/24 13:41:59;;;;;;;2.27;1.67;;;13.70;63.70;;;;;;5091750;28;20429;-56
2021/12/24 13:44:27;;;;;;;1.70;1.60;;;13.80;63.90;;;;;;5090000;28;20420;-56
2021/12/24 13:47:04;;;;;;;1.40;1.30;;;13.90;63.00;;;;;;5091505;28;20587;-56
2021/12/24 13:49:59;;;;;;;1.60;1.47;;;13.90;62.80;;;;;;5090141;28;20444;-56
2021/12/24 13:55:22;;;;;;;1.93;1.20;;;14.00;62.40;;;;;;5091638;28;20567;-56
2021/12/24 13:58:12;;;;;;;2.33;1.40;;;13.80;62.90;;;;;;5092055;28;20469;-56
2021/12/24 14:00:47;;;;;;;1.80;1.70;;;13.80;63.30;;;;;;5088007;28;20967;-57
2021/12/24 14:03:13;;;;;;;1.97;1.70;;;14.00;62.80;;;;;;5091817;28;20436;-56
2021/12/24 14:05:47;;;;;;;3.50;2.40;;;14.10;62.60;;;;;;5091359;28;20441;-55
2021/12/24 14:08:18;;;;;;;3.43;2.90;;;14.30;62.20;;;;;;5091344;28;20206;-57
2021/12/24 14:10:46;;;;;;;4.93;2.57;;;14.30;62.10;;;;;;5091094;28;20426;-56
2021/12/24 14:13:31;;;;;;;2.43;2.23;;;14.30;62.50;;;;;;5091620;28;20433;-57
2021/12/24 14:18:42;;;;;;;2.50;1.60;;;14.40;62.30;;;;;;5090888;28;20488;-56
2021/12/24 14:24:14;;;;;;;2.23;2.03;;;14.50;61.90;;;;;;5091338;28;20850;-58
2021/12/24 14:26:42;;;;;;;2.13;1.93;;;14.70;61.60;;;;;;5090882;28;20878;-55
2021/12/24 14:29:08;;;;;;;2.20;1.90;;;14.60;61.60;;;;;;5091059;28;20424;-56
2021/12/24 14:31:46;;;;;;;3.13;2.20;;;14.70;61.60;;;;;;5090477;28;20516;-57
2021/12/24 14:34:12;;;;;;;2.27;2.00;;;14.50;61.80;;;;;;5091299;28;21296;-57
2021/12/24 14:36:54;;;;;;;3.00;2.00;;;14.50;61.80;;;;;;5090658;28;20608;-55
2021/12/24 14:39:20;;;;;;;2.50;2.30;;;14.40;62.30;;;;;;5090759;28;20240;-56
2021/12/24 14:41:45;;;;;;;5.00;2.40;;;14.30;62.70;;;;;;5089718;28;20904;-57
2021/12/24 14:44:28;;;;;;;4.60;2.70;;;14.50;62.00;;;;;;5086183;28;20191;-55
2021/12/24 14:46:58;;;;;;;3.10;2.80;;;14.60;61.70;;;;;;5085297;28;20219;-56
2021/12/24 14:49:38;;;;;;;3.27;2.97;;;14.70;61.40;;;;;;5088497;28;20456;-58
2021/12/24 14:52:19;;;;;;;2.90;2.40;;;14.80;61.20;;;;;;5089664;28;20448;-57
2021/12/24 14:55:10;;;;;;;3.57;1.90;;;14.70;60.90;;;;;;5090931;28;20425;-56
2021/12/24 14:57:49;;;;;;;2.77;2.10;;;14.50;61.20;;;;;;5091297;28;20417;-56